createdAt,value
2018-11-11T00:00:07.632Z,0
2018-11-11T00:00:48.051Z,0
2018-11-11T00:01:28.487Z,0
2018-11-11T00:02:08.975Z,0
2018-11-11T00:02:49.363Z,0
2018-11-11T00:03:29.759Z,0
2018-11-11T00:04:10.105Z,0
2018-11-11T00:04:50.590Z,0
2018-11-11T00:05:31.348Z,0
2018-11-11T00:06:11.684Z,0
2018-11-11T00:06:52.053Z,0
2018-11-11T00:07:32.537Z,0
2018-11-11T00:08:13.078Z,0
2018-11-11T00:08:53.655Z,0
2018-11-11T00:09:34.094Z,0
2018-11-11T00:10:14.724Z,0
2018-11-11T00:10:54.970Z,0
2018-11-11T00:11:35.399Z,0
2018-11-11T00:12:15.890Z,0
2018-11-11T00:12:56.278Z,0
2018-11-11T00:13:36.688Z,0
2018-11-11T00:14:17.092Z,0
2018-11-11T00:14:57.550Z,0
2018-11-11T00:15:37.945Z,0
2018-11-11T00:16:18.710Z,0
2018-11-11T00:16:58.813Z,0
2018-11-11T00:17:39.536Z,0
2018-11-11T00:18:19.880Z,0
2018-11-11T00:19:00.344Z,0
2018-11-11T00:19:40.676Z,0
2018-11-11T00:20:21.218Z,0
2018-11-11T00:21:01.568Z,0
2018-11-11T00:21:42.098Z,0
2018-11-11T00:22:22.671Z,0
2018-11-11T00:23:02.912Z,0
2018-11-11T00:23:43.426Z,0
2018-11-11T00:24:23.782Z,0
2018-11-11T00:25:04.175Z,0
2018-11-11T00:25:44.700Z,0
2018-11-11T00:26:25.057Z,0
2018-11-11T00:27:05.418Z,0
2018-11-11T00:27:45.820Z,0
2018-11-11T00:28:26.383Z,0
2018-11-11T00:29:06.645Z,0
2018-11-11T00:29:47.086Z,0
2018-11-11T00:30:27.540Z,0
2018-11-11T00:32:55.347Z,0
2018-11-11T00:33:35.752Z,0
2018-11-11T00:34:16.447Z,0
2018-11-11T00:34:56.901Z,0
2018-11-11T00:35:37.460Z,0
2018-11-11T00:36:17.947Z,0
2018-11-11T00:36:58.239Z,0
2018-11-11T00:37:38.746Z,0
2018-11-11T00:38:19.017Z,0
2018-11-11T00:38:59.508Z,0
2018-11-11T00:39:39.977Z,0
2018-11-11T00:40:20.343Z,0
2018-11-11T00:41:00.694Z,0
2018-11-11T00:41:41.117Z,0
2018-11-11T00:42:23.277Z,0
2018-11-11T00:43:03.733Z,0
2018-11-11T00:43:44.098Z,0
2018-11-11T00:44:24.498Z,0
2018-11-11T00:45:04.981Z,0
2018-11-11T00:45:45.434Z,0
2018-11-11T00:46:25.883Z,0
2018-11-11T00:47:06.316Z,0
2018-11-11T00:47:46.943Z,0
2018-11-11T00:48:27.274Z,0
2018-11-11T00:49:07.805Z,0
2018-11-11T00:49:48.383Z,0
2018-11-11T00:50:28.910Z,0
2018-11-11T00:51:09.453Z,0
2018-11-11T00:51:50.395Z,0
2018-11-11T00:52:30.623Z,0
2018-11-11T00:53:11.054Z,0
2018-11-11T00:55:32.694Z,0
2018-11-11T00:56:12.747Z,0
2018-11-11T00:56:53.239Z,0
2018-11-11T00:57:33.662Z,0
2018-11-11T00:58:14.128Z,0
2018-11-11T00:58:54.462Z,0
2018-11-11T00:59:35.033Z,0
2018-11-11T01:00:15.462Z,0
2018-11-11T01:00:56.453Z,0
2018-11-11T01:01:36.989Z,0
2018-11-11T01:02:17.379Z,0
2018-11-11T01:02:57.865Z,0
2018-11-11T01:03:38.311Z,0
2018-11-11T01:04:19.197Z,0
2018-11-11T01:04:59.519Z,0
2018-11-11T01:05:40.130Z,0
2018-11-11T01:06:20.633Z,0
2018-11-11T01:07:01.112Z,0
2018-11-11T01:07:41.526Z,0
2018-11-11T01:08:22.191Z,0
2018-11-11T01:09:02.550Z,0
2018-11-11T01:11:43.138Z,0
2018-11-11T01:12:23.505Z,0
2018-11-11T01:13:03.954Z,0
2018-11-11T01:13:44.641Z,0
2018-11-11T01:14:24.957Z,0
2018-11-11T01:15:05.394Z,0
2018-11-11T01:15:45.790Z,0
2018-11-11T01:16:26.256Z,0
2018-11-11T01:17:06.612Z,0
2018-11-11T01:17:46.998Z,0
2018-11-11T01:18:27.475Z,0
2018-11-11T01:19:07.751Z,0
2018-11-11T01:19:48.256Z,0
2018-11-11T01:20:28.551Z,0
2018-11-11T01:21:08.948Z,0
2018-11-11T01:21:49.384Z,0
2018-11-11T01:22:29.802Z,0
2018-11-11T01:23:10.227Z,0
2018-11-11T01:23:50.641Z,0
2018-11-11T01:24:31.059Z,0
2018-11-11T01:25:11.673Z,0
2018-11-11T01:25:52.193Z,0
2018-11-11T01:26:32.571Z,0
2018-11-11T01:27:13.193Z,0
2018-11-11T01:27:53.438Z,0
2018-11-11T01:28:33.969Z,0
2018-11-11T01:29:14.384Z,0
2018-11-11T01:29:54.827Z,0
2018-11-11T01:30:35.237Z,0
2018-11-11T01:31:15.657Z,0
2018-11-11T01:31:56.064Z,0
2018-11-11T01:32:36.567Z,0
2018-11-11T01:33:17.185Z,0
2018-11-11T01:33:57.613Z,0
2018-11-11T01:34:37.956Z,0
2018-11-11T01:35:18.383Z,0
2018-11-11T01:35:58.831Z,0
2018-11-11T01:36:39.305Z,0
2018-11-11T01:37:19.729Z,0
2018-11-11T01:38:00.078Z,0
2018-11-11T01:38:40.595Z,0
2018-11-11T01:39:20.896Z,0
2018-11-11T01:40:01.329Z,0
2018-11-11T01:40:41.724Z,0
2018-11-11T01:41:22.165Z,0
2018-11-11T01:42:02.595Z,0
2018-11-11T01:42:43.041Z,0
2018-11-11T01:43:23.752Z,0
2018-11-11T01:44:04.662Z,0
2018-11-11T01:44:44.797Z,0
2018-11-11T01:45:25.279Z,0
2018-11-11T01:46:05.966Z,0
2018-11-11T01:46:46.520Z,0
2018-11-11T01:47:26.801Z,0
2018-11-11T01:48:07.217Z,0
2018-11-11T01:48:47.639Z,0
2018-11-11T01:49:28.032Z,0
2018-11-11T01:50:08.534Z,0
2018-11-11T01:50:48.893Z,0
2018-11-11T01:51:29.387Z,0
2018-11-11T01:52:09.812Z,0
2018-11-11T01:52:50.207Z,0
2018-11-11T01:53:30.624Z,0
2018-11-11T01:54:11.070Z,0
2018-11-11T01:54:51.452Z,0
2018-11-11T01:55:31.878Z,0
2018-11-11T01:56:12.208Z,0
2018-11-11T01:56:52.647Z,0
2018-11-11T01:57:33.215Z,0
2018-11-11T01:58:13.545Z,0
2018-11-11T01:58:53.866Z,0
2018-11-11T01:59:34.307Z,0
2018-11-11T02:00:14.784Z,0
2018-11-11T02:00:55.290Z,0
2018-11-11T02:01:35.651Z,0
2018-11-11T02:02:15.997Z,0
2018-11-11T02:02:56.467Z,0
2018-11-11T02:03:36.999Z,0
2018-11-11T02:04:17.361Z,0
2018-11-11T02:04:57.966Z,0
2018-11-11T02:05:38.416Z,0
2018-11-11T02:06:18.894Z,0
2018-11-11T02:06:59.775Z,0
2018-11-11T02:07:39.953Z,0
2018-11-11T02:08:20.254Z,0
2018-11-11T02:09:00.642Z,0
2018-11-11T02:09:41.112Z,0
2018-11-11T02:10:21.495Z,0
2018-11-11T02:11:02.067Z,0
2018-11-11T02:11:42.488Z,0
2018-11-11T02:12:22.770Z,0
2018-11-11T02:13:03.345Z,0
2018-11-11T02:13:43.566Z,0
2018-11-11T02:14:23.988Z,0
2018-11-11T02:15:04.431Z,0
2018-11-11T02:15:44.910Z,0
2018-11-11T02:16:25.295Z,0
2018-11-11T02:17:05.668Z,0
2018-11-11T02:17:46.051Z,0
2018-11-11T02:18:26.525Z,0
2018-11-11T02:19:06.864Z,0
2018-11-11T02:19:47.318Z,0
2018-11-11T02:20:27.776Z,0
2018-11-11T02:21:08.452Z,0
2018-11-11T02:21:48.753Z,0
2018-11-11T02:22:29.074Z,0
2018-11-11T02:23:09.435Z,0
2018-11-11T02:23:50.046Z,0
2018-11-11T02:24:30.354Z,0
2018-11-11T02:25:10.708Z,0
2018-11-11T02:25:51.148Z,0
2018-11-11T02:26:31.587Z,0
2018-11-11T02:27:12.009Z,0
2018-11-11T02:27:52.439Z,0
2018-11-11T02:28:32.833Z,0
2018-11-11T02:29:13.260Z,0
2018-11-11T02:29:53.688Z,0
2018-11-11T02:30:34.075Z,0
2018-11-11T02:31:14.483Z,0
2018-11-11T02:31:54.877Z,0
2018-11-11T02:32:35.301Z,0
2018-11-11T02:33:15.717Z,0
2018-11-11T02:33:56.200Z,0
2018-11-11T02:34:36.551Z,0
2018-11-11T02:35:16.945Z,0
2018-11-11T02:35:57.336Z,0
2018-11-11T02:36:37.731Z,0
2018-11-11T02:37:18.288Z,0
2018-11-11T02:37:58.664Z,0
2018-11-11T02:38:39.286Z,0
2018-11-11T02:39:19.518Z,0
2018-11-11T02:39:59.950Z,0
2018-11-11T02:40:40.477Z,0
2018-11-11T02:41:20.839Z,0
2018-11-11T02:42:01.277Z,0
2018-11-11T02:42:41.758Z,0
2018-11-11T02:43:22.081Z,0
2018-11-11T02:44:02.530Z,0
2018-11-11T02:44:43.026Z,0
2018-11-11T02:45:23.485Z,0
2018-11-11T02:46:03.840Z,0
2018-11-11T02:46:44.496Z,0
2018-11-11T02:47:24.877Z,0
2018-11-11T02:48:05.347Z,0
2018-11-11T02:48:45.680Z,0
2018-11-11T02:49:26.132Z,0
2018-11-11T02:50:06.574Z,0
2018-11-11T02:50:46.956Z,0
2018-11-11T02:51:27.381Z,0
2018-11-11T02:52:08.119Z,0
2018-11-11T02:52:48.624Z,0
2018-11-11T02:53:28.984Z,0
2018-11-11T02:54:09.491Z,0
2018-11-11T02:54:49.812Z,0
2018-11-11T02:55:30.253Z,0
2018-11-11T02:56:10.634Z,0
2018-11-11T02:56:51.090Z,0
2018-11-11T02:57:31.591Z,0
2018-11-11T02:58:12.027Z,0
2018-11-11T02:58:52.586Z,0
2018-11-11T02:59:33.025Z,0
2018-11-11T03:00:13.492Z,0
2018-11-11T03:00:53.780Z,0
2018-11-11T03:01:34.405Z,0
2018-11-11T03:02:14.775Z,0
2018-11-11T03:02:55.267Z,0
2018-11-11T03:03:35.734Z,0
2018-11-11T03:04:16.160Z,0
2018-11-11T03:04:56.536Z,0
2018-11-11T03:05:36.926Z,0
2018-11-11T03:06:17.370Z,0
2018-11-11T03:06:57.989Z,0
2018-11-11T03:07:38.416Z,0
2018-11-11T03:08:18.779Z,0
2018-11-11T03:08:59.163Z,0
2018-11-11T03:09:39.605Z,0
2018-11-11T03:10:19.973Z,0
2018-11-11T03:11:00.403Z,0
2018-11-11T03:11:40.826Z,0
2018-11-11T03:12:21.162Z,0
2018-11-11T03:13:01.691Z,0
2018-11-11T03:13:42.158Z,0
2018-11-11T03:14:22.404Z,0
2018-11-11T03:15:02.825Z,0
2018-11-11T03:15:43.319Z,0
2018-11-11T03:16:23.776Z,0
2018-11-11T03:17:04.130Z,0
2018-11-11T03:17:44.561Z,0
2018-11-11T03:18:25.081Z,0
2018-11-11T03:19:05.426Z,0
2018-11-11T03:19:45.835Z,0
2018-11-11T03:22:19.058Z,0
2018-11-11T03:22:59.476Z,0
2018-11-11T03:23:39.881Z,0
2018-11-11T03:24:20.221Z,0
2018-11-11T03:25:00.749Z,0
2018-11-11T03:25:41.101Z,0
2018-11-11T03:26:21.529Z,0
2018-11-11T03:27:01.906Z,0
2018-11-11T03:27:42.286Z,0
2018-11-11T03:28:22.822Z,0
2018-11-11T03:30:51.102Z,0
2018-11-11T03:31:31.453Z,0
2018-11-11T03:32:11.825Z,0
2018-11-11T03:32:52.247Z,0
2018-11-11T03:33:32.625Z,0
2018-11-11T03:34:13.060Z,0
2018-11-11T03:34:53.468Z,0
2018-11-11T03:35:34.097Z,0
2018-11-11T03:36:14.276Z,0
2018-11-11T03:36:54.725Z,0
2018-11-11T03:37:35.135Z,0
2018-11-11T03:38:15.651Z,0
2018-11-11T03:38:55.963Z,0
2018-11-11T03:39:36.423Z,0
2018-11-11T03:40:16.931Z,0
2018-11-11T03:40:57.395Z,0
2018-11-11T03:41:37.777Z,0
2018-11-11T03:42:18.192Z,0
2018-11-11T03:42:58.672Z,0
2018-11-11T03:43:38.938Z,0
2018-11-11T03:44:19.335Z,0
2018-11-11T03:44:59.704Z,0
2018-11-11T03:45:40.141Z,0
2018-11-11T03:46:20.493Z,0
2018-11-11T03:47:00.956Z,0
2018-11-11T03:47:41.453Z,0
2018-11-11T03:48:21.839Z,0
2018-11-11T03:49:02.274Z,0
2018-11-11T03:49:42.675Z,0
2018-11-11T03:50:22.991Z,0
2018-11-11T03:51:03.442Z,0
2018-11-11T03:51:43.888Z,0
2018-11-11T03:52:24.295Z,0
2018-11-11T03:53:04.678Z,0
2018-11-11T03:53:45.036Z,0
2018-11-11T03:54:25.498Z,0
2018-11-11T03:55:05.901Z,0
2018-11-11T03:55:46.357Z,0
2018-11-11T03:56:26.717Z,0
2018-11-11T03:57:07.251Z,0
2018-11-11T03:57:47.662Z,0
2018-11-11T03:58:27.960Z,0
2018-11-11T03:59:08.386Z,0
2018-11-11T03:59:48.780Z,0
2018-11-11T04:00:29.542Z,0
2018-11-11T04:01:09.652Z,0
2018-11-11T04:01:50.121Z,0
2018-11-11T04:02:30.657Z,0
2018-11-11T04:03:10.937Z,0
2018-11-11T04:03:51.372Z,0
2018-11-11T04:04:31.869Z,0
2018-11-11T04:05:12.217Z,0
2018-11-11T04:05:52.668Z,0
2018-11-11T04:06:33.151Z,0
2018-11-11T04:07:13.514Z,0
2018-11-11T04:07:53.946Z,0
2018-11-11T04:08:34.314Z,0
2018-11-11T04:09:14.770Z,0
2018-11-11T04:09:55.265Z,0
2018-11-11T04:10:35.829Z,0
2018-11-11T04:11:16.051Z,0
2018-11-11T04:11:56.432Z,0
2018-11-11T04:12:36.840Z,0
2018-11-11T04:13:17.399Z,0
2018-11-11T04:13:57.664Z,0
2018-11-11T04:14:38.103Z,0
2018-11-11T04:15:18.596Z,0
2018-11-11T04:15:59.037Z,0
2018-11-11T04:16:39.482Z,0
2018-11-11T04:17:19.878Z,0
2018-11-11T04:18:00.351Z,0
2018-11-11T04:18:40.847Z,0
2018-11-11T04:19:21.321Z,0
2018-11-11T04:21:49.274Z,0
2018-11-11T04:22:29.594Z,0
2018-11-11T04:23:10.167Z,0
2018-11-11T04:23:50.527Z,0
2018-11-11T04:24:30.977Z,0
2018-11-11T04:25:11.493Z,0
2018-11-11T04:25:51.788Z,0
2018-11-11T04:26:32.247Z,0
2018-11-11T04:27:12.641Z,0
2018-11-11T05:08:17.054Z,0
2018-11-11T05:08:57.747Z,0
2018-11-11T05:09:38.121Z,0
2018-11-11T05:10:18.952Z,0
2018-11-11T05:10:59.153Z,0
2018-11-11T05:11:39.690Z,0
2018-11-11T05:12:20.124Z,0
2018-11-11T05:13:00.627Z,0
2018-11-11T05:13:41.023Z,0
2018-11-11T05:14:21.531Z,0
2018-11-11T05:15:01.906Z,0
2018-11-11T05:15:42.400Z,0
2018-11-11T05:16:22.803Z,0
2018-11-11T05:17:03.266Z,0
2018-11-11T05:17:43.614Z,0
2018-11-11T05:18:24.046Z,0
2018-11-11T05:19:04.613Z,0
2018-11-11T05:19:44.925Z,0
2018-11-11T05:20:25.330Z,0
2018-11-11T05:21:05.956Z,0
2018-11-11T05:21:46.906Z,0
2018-11-11T05:22:27.285Z,0
2018-11-11T05:23:07.638Z,0
2018-11-11T05:23:48.066Z,0
2018-11-11T05:24:28.471Z,0
2018-11-11T05:25:08.897Z,0
2018-11-11T05:25:49.405Z,0
2018-11-11T05:26:29.786Z,0
2018-11-11T05:27:10.196Z,0
2018-11-11T05:27:50.605Z,0
2018-11-11T05:28:30.984Z,0
2018-11-11T05:29:11.765Z,0
2018-11-11T05:29:52.153Z,0
2018-11-11T05:30:32.534Z,0
2018-11-11T05:31:12.936Z,0
2018-11-11T05:31:53.437Z,0
2018-11-11T05:32:33.893Z,0
2018-11-11T05:33:14.222Z,0
2018-11-11T05:33:54.764Z,0
2018-11-11T05:34:35.077Z,0
2018-11-11T05:35:15.496Z,0
2018-11-11T05:35:56.101Z,0
2018-11-11T05:36:36.454Z,0
2018-11-11T05:37:16.886Z,0
2018-11-11T05:37:57.381Z,0
2018-11-11T05:38:37.766Z,0
2018-11-11T05:39:18.172Z,0
2018-11-11T05:39:58.703Z,0
2018-11-11T05:40:39.148Z,0
2018-11-11T05:41:19.514Z,0
2018-11-11T05:41:59.914Z,0
2018-11-11T05:42:40.372Z,0
2018-11-11T05:43:20.720Z,0
2018-11-11T05:44:01.189Z,0
2018-11-11T05:44:41.561Z,0
2018-11-11T05:45:22.091Z,0
2018-11-11T05:46:02.561Z,0
2018-11-11T05:46:43.092Z,0
2018-11-11T05:47:23.390Z,0
2018-11-11T05:48:03.891Z,0
2018-11-11T05:48:44.489Z,0
2018-11-11T05:49:24.895Z,0
2018-11-11T05:50:05.308Z,0
2018-11-11T05:50:45.685Z,0
2018-11-11T05:51:26.259Z,0
2018-11-11T05:52:06.636Z,0
2018-11-11T05:52:47.033Z,0
2018-11-11T05:53:27.395Z,0
2018-11-11T05:54:07.832Z,0
2018-11-11T05:54:48.261Z,0
2018-11-11T05:55:28.692Z,0
2018-11-11T05:56:09.107Z,0
2018-11-11T05:56:49.503Z,0
2018-11-11T05:57:29.983Z,0
2018-11-11T05:58:10.423Z,0
2018-11-11T05:58:50.840Z,0
2018-11-11T05:59:31.330Z,0
2018-11-11T06:00:11.705Z,0
2018-11-11T06:00:52.208Z,0
2018-11-11T06:03:25.697Z,0
2018-11-11T06:04:06.243Z,0
2018-11-11T06:04:46.521Z,0
2018-11-11T06:05:26.862Z,0
2018-11-11T06:06:07.367Z,0
2018-11-11T06:06:47.737Z,0
2018-11-11T06:07:28.201Z,0
2018-11-11T06:08:08.989Z,0
2018-11-11T06:08:49.167Z,0
2018-11-11T06:09:29.668Z,0
2018-11-11T06:11:45.277Z,0
2018-11-11T06:12:25.667Z,0
2018-11-11T06:13:05.981Z,0
2018-11-11T06:13:46.526Z,0
2018-11-11T06:14:26.776Z,0
2018-11-11T06:15:07.334Z,0
2018-11-11T06:15:47.758Z,0
2018-11-11T06:16:28.164Z,0
2018-11-11T06:17:08.583Z,0
2018-11-11T06:17:48.967Z,0
2018-11-11T06:18:29.382Z,0
2018-11-11T06:19:09.776Z,0
2018-11-11T06:19:50.145Z,0
2018-11-11T06:20:30.524Z,0
2018-11-11T06:22:43.298Z,0
2018-11-11T06:23:23.735Z,0
2018-11-11T06:24:04.119Z,0
2018-11-11T06:24:44.548Z,0
2018-11-11T06:25:24.955Z,0
2018-11-11T06:26:05.397Z,0
2018-11-11T06:26:45.754Z,0
2018-11-11T06:27:26.192Z,0
2018-11-11T06:28:06.600Z,0
2018-11-11T06:28:46.997Z,0
2018-11-11T06:29:27.409Z,0
2018-11-11T06:30:07.810Z,0
2018-11-11T06:30:48.201Z,0
2018-11-11T06:31:28.604Z,0
2018-11-11T06:32:09.024Z,0
2018-11-11T06:32:49.465Z,0
2018-11-11T06:33:29.820Z,0
2018-11-11T06:34:10.310Z,0
2018-11-11T06:34:50.707Z,0
2018-11-11T06:35:31.072Z,0
2018-11-11T06:36:11.499Z,0
2018-11-11T06:36:51.928Z,0
2018-11-11T06:37:32.406Z,0
2018-11-11T06:38:12.755Z,0
2018-11-11T06:38:53.163Z,0
2018-11-11T06:39:33.615Z,0
2018-11-11T06:40:14.101Z,0
2018-11-11T06:40:54.472Z,0
2018-11-11T06:41:35.054Z,0
2018-11-11T06:42:15.227Z,0
2018-11-11T06:42:55.614Z,0
2018-11-11T06:43:36.033Z,0
2018-11-11T06:44:16.424Z,0
2018-11-11T06:44:56.887Z,0
2018-11-11T06:45:37.230Z,0
2018-11-11T06:46:17.707Z,0
2018-11-11T06:46:58.101Z,0
2018-11-11T06:47:38.492Z,0
2018-11-11T06:48:18.868Z,0
2018-11-11T06:48:59.297Z,0
2018-11-11T06:49:39.698Z,0
2018-11-11T06:50:20.146Z,0
2018-11-11T06:51:00.495Z,0
2018-11-11T06:53:13.424Z,0
2018-11-11T06:53:53.881Z,0
2018-11-11T06:54:34.265Z,0
2018-11-11T06:55:14.632Z,0
2018-11-11T06:55:55.068Z,0
2018-11-11T06:56:35.448Z,0
2018-11-11T06:57:15.875Z,0
2018-11-11T06:57:56.367Z,0
2018-11-11T06:58:36.707Z,0
2018-11-11T06:59:17.108Z,0
2018-11-11T06:59:57.694Z,0
2018-11-11T07:00:38.103Z,0
2018-11-11T07:01:18.600Z,0
2018-11-11T07:01:59.035Z,0
2018-11-11T07:02:39.436Z,0
2018-11-11T07:03:19.832Z,0
2018-11-11T07:04:00.195Z,0
2018-11-11T07:04:40.783Z,0
2018-11-11T07:05:21.516Z,0
2018-11-11T07:06:01.664Z,0
2018-11-11T07:06:42.037Z,0
2018-11-11T07:07:22.623Z,0
2018-11-11T07:08:03.126Z,0
2018-11-11T07:10:40.531Z,0
2018-11-11T07:11:21.010Z,0
2018-11-11T07:12:01.460Z,0
2018-11-11T07:12:41.908Z,0
2018-11-11T07:13:22.307Z,0
2018-11-11T07:14:02.732Z,0
2018-11-11T07:14:43.236Z,0
2018-11-11T07:15:23.763Z,0
2018-11-11T07:16:04.128Z,0
2018-11-11T07:16:44.574Z,5
2018-11-11T07:17:25.017Z,5
2018-11-11T07:18:05.588Z,5
2018-11-11T07:18:46.090Z,5
2018-11-11T07:19:26.469Z,5
2018-11-11T07:20:06.871Z,5
2018-11-11T07:20:47.220Z,0
2018-11-11T07:21:28.034Z,0
2018-11-11T07:22:08.453Z,0
2018-11-11T07:22:49.410Z,5
2018-11-11T07:23:29.450Z,5
2018-11-11T07:24:09.912Z,5
2018-11-11T07:24:50.857Z,5
2018-11-11T07:25:31.416Z,5
2018-11-11T07:26:12.368Z,5
2018-11-11T07:26:52.687Z,5
2018-11-11T07:27:33.084Z,0
2018-11-11T07:28:13.444Z,0
2018-11-11T07:28:53.885Z,0
2018-11-11T07:29:34.332Z,0
2018-11-11T07:30:14.847Z,0
2018-11-11T07:30:55.222Z,0
2018-11-11T07:31:35.904Z,0
2018-11-11T07:32:16.357Z,0
2018-11-11T07:32:56.769Z,0
2018-11-11T07:33:37.215Z,0
2018-11-11T07:34:17.635Z,0
2018-11-11T07:34:58.031Z,0
2018-11-11T07:35:38.481Z,0
2018-11-11T07:36:18.944Z,0
2018-11-11T07:36:59.787Z,0
2018-11-11T07:37:40.126Z,5
2018-11-11T07:38:20.709Z,5
2018-11-11T07:39:00.912Z,5
2018-11-11T07:39:41.378Z,5
2018-11-11T07:40:22.059Z,5
2018-11-11T07:41:02.390Z,5
2018-11-11T07:41:42.826Z,5
2018-11-11T07:42:23.296Z,5
2018-11-11T07:43:03.641Z,5
2018-11-11T07:43:44.080Z,5
2018-11-11T07:44:24.503Z,5
2018-11-11T07:45:04.952Z,5
2018-11-11T07:45:45.373Z,5
2018-11-11T07:46:25.771Z,10
2018-11-11T07:47:06.174Z,10
2018-11-11T07:47:46.659Z,10
2018-11-11T07:48:27.230Z,10
2018-11-11T07:49:07.605Z,10
2018-11-11T07:49:47.979Z,10
2018-11-11T07:50:28.519Z,5
2018-11-11T07:51:08.991Z,5
2018-11-11T07:51:49.393Z,5
2018-11-11T07:52:29.803Z,5
2018-11-11T07:53:10.254Z,5
2018-11-11T07:53:50.790Z,5
2018-11-11T07:54:31.215Z,5
2018-11-11T07:55:11.818Z,5
2018-11-11T07:55:52.071Z,5
2018-11-11T07:56:32.465Z,5
2018-11-11T07:57:12.848Z,5
2018-11-11T07:57:53.411Z,5
2018-11-11T07:58:33.959Z,5
2018-11-11T07:59:14.194Z,5
2018-11-11T07:59:54.926Z,5
2018-11-11T08:00:35.314Z,5
2018-11-11T08:01:15.718Z,5
2018-11-11T08:01:56.287Z,5
2018-11-11T08:02:36.610Z,5
2018-11-11T08:03:17.385Z,5
2018-11-11T08:05:46.388Z,5
2018-11-11T08:06:28.179Z,5
2018-11-11T08:07:08.713Z,5
2018-11-11T08:07:49.094Z,5
2018-11-11T08:08:29.524Z,5
2018-11-11T08:09:09.904Z,5
2018-11-11T08:09:50.333Z,5
2018-11-11T08:10:30.703Z,10
2018-11-11T08:11:11.233Z,10
2018-11-11T08:11:52.094Z,10
2018-11-11T08:12:32.762Z,10
2018-11-11T08:13:13.228Z,10
2018-11-11T08:13:53.713Z,10
2018-11-11T08:14:34.093Z,10
2018-11-11T08:15:14.472Z,10
2018-11-11T08:15:54.934Z,10
2018-11-11T08:16:35.327Z,10
2018-11-11T08:17:15.695Z,20
2018-11-11T08:17:56.444Z,20
2018-11-11T08:18:36.775Z,35
2018-11-11T08:19:17.547Z,35
2018-11-11T08:19:58.026Z,35
2018-11-11T08:20:38.084Z,35
2018-11-11T08:21:18.503Z,40
2018-11-11T08:23:33.494Z,40
2018-11-11T08:24:13.850Z,40
2018-11-11T08:24:54.252Z,40
2018-11-11T08:25:34.731Z,45
2018-11-11T08:26:14.985Z,45
2018-11-11T08:26:55.398Z,40
2018-11-11T08:27:36.077Z,35
2018-11-11T08:28:16.387Z,45
2018-11-11T08:28:57.271Z,45
2018-11-11T08:29:37.777Z,45
2018-11-11T08:30:18.100Z,45
2018-11-11T08:30:58.532Z,40
2018-11-11T08:31:38.948Z,45
2018-11-11T08:32:19.513Z,45
2018-11-11T08:32:59.797Z,45
2018-11-11T08:33:40.293Z,45
2018-11-11T08:34:20.985Z,45
2018-11-11T08:35:01.473Z,45
2018-11-11T08:35:41.707Z,45
2018-11-11T08:36:22.202Z,45
2018-11-11T08:37:02.572Z,45
2018-11-11T08:37:42.979Z,45
2018-11-11T08:38:23.798Z,45
2018-11-11T08:39:04.159Z,45
2018-11-11T08:39:44.646Z,45
2018-11-11T08:40:25.081Z,45
2018-11-11T08:41:05.366Z,45
2018-11-11T08:41:46.084Z,45
2018-11-11T08:42:26.739Z,35
2018-11-11T08:43:07.101Z,45
2018-11-11T08:43:47.526Z,45
2018-11-11T08:44:28.091Z,45
2018-11-11T08:45:08.548Z,45
2018-11-11T08:45:48.955Z,45
2018-11-11T08:46:29.428Z,50
2018-11-11T08:47:09.991Z,50
2018-11-11T08:47:51.159Z,45
2018-11-11T08:48:31.576Z,45
2018-11-11T08:49:12.060Z,50
2018-11-11T08:49:52.953Z,50
2018-11-11T08:50:33.038Z,50
2018-11-11T08:51:13.307Z,35
2018-11-11T08:51:53.829Z,35
2018-11-11T08:52:34.219Z,35
2018-11-11T08:53:14.605Z,50
2018-11-11T08:53:55.182Z,35
2018-11-11T08:54:35.577Z,35
2018-11-11T08:55:15.926Z,35
2018-11-11T08:57:29.664Z,30
2018-11-11T08:58:10.303Z,40
2018-11-11T08:58:50.584Z,45
2018-11-11T08:59:31.040Z,45
2018-11-11T09:00:11.565Z,50
2018-11-11T09:00:52.024Z,45
2018-11-11T09:01:32.471Z,40
2018-11-11T09:02:13.029Z,30
2018-11-11T09:02:53.711Z,30
2018-11-11T09:03:35.161Z,45
2018-11-11T09:04:15.645Z,45
2018-11-11T09:04:56.237Z,45
2018-11-11T09:05:36.607Z,45
2018-11-11T09:06:17.155Z,40
2018-11-11T09:06:57.691Z,50
2018-11-11T09:07:38.136Z,40
2018-11-11T09:08:18.534Z,45
2018-11-11T09:08:58.890Z,45
2018-11-11T09:09:39.481Z,45
2018-11-11T09:10:19.972Z,45
2018-11-11T09:11:00.386Z,45
2018-11-11T09:11:41.164Z,50
2018-11-11T09:12:22.034Z,45
2018-11-11T09:13:02.714Z,45
2018-11-11T09:13:43.221Z,45
2018-11-11T09:14:23.824Z,35
2018-11-11T09:15:04.266Z,40
2018-11-11T09:15:45.068Z,50
2018-11-11T09:16:25.160Z,45
2018-11-11T09:17:05.579Z,50
2018-11-11T09:17:46.077Z,50
2018-11-11T09:18:26.523Z,50
2018-11-11T09:19:07.237Z,45
2018-11-11T09:19:47.601Z,35
2018-11-11T09:20:28.384Z,45
2018-11-11T09:21:08.698Z,50
2018-11-11T09:21:49.142Z,55
2018-11-11T09:22:29.774Z,55
2018-11-11T09:23:10.152Z,45
2018-11-11T09:23:50.619Z,55
2018-11-11T09:24:31.456Z,55
2018-11-11T09:25:11.918Z,60
2018-11-11T09:25:52.264Z,60
2018-11-11T09:26:33.019Z,55
2018-11-11T09:27:13.307Z,45
2018-11-11T09:27:53.941Z,30
2018-11-11T09:30:36.446Z,35
2018-11-11T09:31:16.928Z,35
2018-11-11T09:31:57.579Z,35
2018-11-11T09:32:38.136Z,35
2018-11-11T09:33:18.497Z,35
2018-11-11T09:33:59.109Z,35
2018-11-11T09:34:39.755Z,30
2018-11-11T09:35:20.484Z,30
2018-11-11T09:36:00.961Z,30
2018-11-11T09:36:41.735Z,30
2018-11-11T09:37:22.441Z,25
2018-11-11T09:38:02.725Z,25
2018-11-11T09:38:43.181Z,25
2018-11-11T09:39:23.632Z,25
2018-11-11T09:40:04.447Z,45
2018-11-11T09:40:44.789Z,25
2018-11-11T09:41:25.196Z,25
2018-11-11T09:42:05.801Z,25
2018-11-11T09:42:46.238Z,25
2018-11-11T09:43:26.937Z,25
2018-11-11T09:44:07.138Z,30
2018-11-11T09:44:47.655Z,25
2018-11-11T09:45:28.953Z,25
2018-11-11T09:46:09.432Z,25
2018-11-11T09:46:49.766Z,25
2018-11-11T09:47:30.230Z,20
2018-11-11T09:48:11.044Z,25
2018-11-11T09:48:52.462Z,25
2018-11-11T09:49:33.085Z,40
2018-11-11T09:50:13.468Z,30
2018-11-11T09:50:53.914Z,45
2018-11-11T09:51:34.348Z,40
2018-11-11T09:52:14.718Z,30
2018-11-11T09:52:55.106Z,30
2018-11-11T09:53:36.708Z,40
2018-11-11T09:54:16.199Z,40
2018-11-11T09:54:56.625Z,45
2018-11-11T09:55:37.143Z,35
2018-11-11T09:56:17.555Z,45
2018-11-11T09:56:58.798Z,40
2018-11-11T09:57:39.242Z,40
2018-11-11T09:58:19.995Z,40
2018-11-11T09:59:01.095Z,35
2018-11-11T09:59:41.517Z,40
2018-11-11T10:00:22.212Z,55
2018-11-11T10:01:02.881Z,40
2018-11-11T10:01:44.236Z,50
2018-11-11T10:02:24.662Z,55
2018-11-11T10:03:05.445Z,55
2018-11-11T10:03:46.032Z,55
2018-11-11T10:04:26.550Z,55
2018-11-11T10:05:06.885Z,55
2018-11-11T10:07:43.242Z,60
2018-11-11T10:08:23.717Z,60
2018-11-11T10:09:04.088Z,45
2018-11-11T10:09:44.547Z,40
2018-11-11T10:10:24.913Z,60
2018-11-11T10:11:05.715Z,60
2018-11-11T10:11:46.103Z,55
2018-11-11T10:12:26.693Z,55
2018-11-11T10:13:07.173Z,55
2018-11-11T10:13:47.658Z,45
2018-11-11T10:14:28.355Z,50
2018-11-11T10:15:08.702Z,50
2018-11-11T10:15:49.023Z,50
2018-11-11T10:20:30.282Z,45
2018-11-11T10:21:10.836Z,35
2018-11-11T10:21:51.541Z,30
2018-11-11T10:22:32.057Z,30
2018-11-11T10:23:12.375Z,30
2018-11-11T10:23:52.826Z,30
2018-11-11T10:24:34.296Z,35
2018-11-11T10:25:14.860Z,45
2018-11-11T10:25:55.305Z,30
2018-11-11T10:26:35.790Z,30
2018-11-11T10:27:16.204Z,30
2018-11-11T10:27:56.767Z,35
2018-11-11T10:28:37.506Z,35
2018-11-11T10:29:17.952Z,30
2018-11-11T11:07:12.834Z,40
2018-11-11T11:07:54.412Z,40
2018-11-11T11:08:35.209Z,40
2018-11-11T11:09:16.267Z,40
2018-11-11T11:09:56.810Z,45
2018-11-11T11:10:37.297Z,45
2018-11-11T11:11:18.200Z,40
2018-11-11T11:11:58.546Z,40
2018-11-11T11:12:39.211Z,40
2018-11-11T11:13:21.407Z,40
2018-11-11T11:14:01.210Z,45
2018-11-11T11:14:41.679Z,40
2018-11-11T11:15:22.514Z,40
2018-11-11T11:16:03.107Z,40
2018-11-11T11:16:43.764Z,35
2018-11-11T11:17:24.501Z,35
2018-11-11T11:18:04.920Z,35
2018-11-11T11:18:45.547Z,35
2018-11-11T11:19:26.302Z,35
2018-11-11T11:20:06.737Z,35
2018-11-11T11:20:47.771Z,35
2018-11-11T11:21:28.035Z,35
2018-11-11T11:22:08.667Z,35
2018-11-11T11:22:49.469Z,35
2018-11-11T11:23:30.184Z,40
2018-11-11T11:24:10.667Z,40
2018-11-11T11:24:51.578Z,40
2018-11-11T11:25:32.092Z,40
2018-11-11T11:26:12.537Z,45
2018-11-11T11:26:53.973Z,40
2018-11-11T11:27:34.487Z,40
2018-11-11T11:28:15.050Z,40
2018-11-11T11:28:56.061Z,40
2018-11-11T11:29:37.325Z,40
2018-11-11T11:30:18.057Z,40
2018-11-11T11:30:58.463Z,40
2018-11-11T11:31:39.121Z,40
2018-11-11T11:32:20.071Z,40
2018-11-11T11:33:00.945Z,40
2018-11-11T11:33:41.781Z,40
2018-11-11T11:34:22.235Z,35
2018-11-11T11:35:03.924Z,35
2018-11-11T11:35:44.961Z,35
2018-11-11T11:36:24.849Z,35
2018-11-11T11:37:06.368Z,35
2018-11-11T11:37:46.275Z,35
2018-11-11T11:38:27.138Z,35
2018-11-11T11:39:07.700Z,35
2018-11-11T11:39:48.584Z,30
2018-11-11T11:40:29.099Z,30
2018-11-11T11:41:10.031Z,30
2018-11-11T11:41:50.587Z,30
2018-11-11T11:42:32.043Z,25